createdAt,value
2018-07-25T00:01:45.838Z,22.60
2018-07-25T00:04:15.426Z,22.50
2018-07-25T00:06:44.576Z,22.50
2018-07-25T00:09:14.806Z,22.50
2018-07-25T00:11:43.413Z,22.40
2018-07-25T00:14:13.039Z,22.40
2018-07-25T00:16:41.963Z,22.40
2018-07-25T00:19:10.210Z,22.30
2018-07-25T00:21:38.688Z,22.30
2018-07-25T00:24:07.294Z,22.30
2018-07-25T00:26:41.083Z,22.30
2018-07-25T00:29:10.777Z,22.30
2018-07-25T00:31:38.994Z,22.20
2018-07-25T00:34:07.509Z,22.20
2018-07-25T00:36:36.849Z,22.20
2018-07-25T00:39:07.899Z,22.20
2018-07-25T00:41:37.310Z,22.10
2018-07-25T00:44:05.640Z,22.10
2018-07-25T00:46:33.939Z,22.10
2018-07-25T00:49:02.550Z,22.10
2018-07-25T00:51:31.287Z,22.10
2018-07-25T00:53:59.539Z,22.00
2018-07-25T00:56:28.266Z,22.00
2018-07-25T00:58:57.178Z,21.90
2018-07-25T01:01:25.405Z,21.90
2018-07-25T01:03:53.642Z,21.90
2018-07-25T01:06:22.238Z,21.80
2018-07-25T01:08:50.865Z,21.80
2018-07-25T01:11:19.096Z,21.80
2018-07-25T01:13:47.333Z,21.80
2018-07-25T01:16:15.706Z,21.70
2018-07-25T01:18:43.990Z,21.70
2018-07-25T01:21:12.382Z,21.70
2018-07-25T01:23:40.610Z,21.70
2018-07-25T01:26:14.098Z,21.70
2018-07-25T01:28:42.357Z,21.70
2018-07-25T01:31:10.821Z,21.60
2018-07-25T01:33:39.315Z,21.60
2018-07-25T01:36:08.000Z,21.60
2018-07-25T01:38:36.307Z,21.60
2018-07-25T01:41:04.847Z,21.60
2018-07-25T01:43:33.121Z,21.60
2018-07-25T01:46:01.487Z,21.60
2018-07-25T01:48:29.858Z,21.60
2018-07-25T01:50:58.211Z,21.50
2018-07-25T01:53:27.322Z,21.50
2018-07-25T01:55:55.950Z,21.50
2018-07-25T01:58:24.186Z,21.50
2018-07-25T02:00:52.402Z,21.50
2018-07-25T02:03:20.912Z,21.40
2018-07-25T02:05:49.475Z,21.40
2018-07-25T02:08:17.779Z,21.40
2018-07-25T02:10:46.658Z,21.40
2018-07-25T02:13:16.739Z,21.40
2018-07-25T02:15:45.593Z,21.40
2018-07-25T02:18:13.827Z,21.30
2018-07-25T02:20:42.067Z,21.40
2018-07-25T02:23:10.295Z,21.30
2018-07-25T02:25:38.866Z,21.30
2018-07-25T02:28:07.202Z,21.30
2018-07-25T02:30:35.464Z,21.30
2018-07-25T02:33:03.760Z,21.20
2018-07-25T02:35:37.280Z,21.20
2018-07-25T02:38:05.663Z,21.20
2018-07-25T02:40:34.295Z,21.20
2018-07-25T02:43:02.681Z,21.10
2018-07-25T02:45:47.487Z,21.20
2018-07-25T02:48:16.416Z,21.20
2018-07-25T02:50:44.712Z,21.10
2018-07-25T02:53:13.340Z,21.10
2018-07-25T02:55:41.877Z,21.10
2018-07-25T02:58:10.359Z,21.10
2018-07-25T03:00:38.643Z,21.10
2018-07-25T03:03:07.347Z,21.10
2018-07-25T03:05:35.756Z,21.10
2018-07-25T03:08:04.261Z,21.10
2018-07-25T03:10:32.559Z,21.10
2018-07-25T03:13:00.779Z,21.10
2018-07-25T03:15:29.018Z,21.10
2018-07-25T03:17:57.267Z,21.10
2018-07-25T03:20:25.584Z,21.10
2018-07-25T03:22:53.816Z,21.10
2018-07-25T03:25:22.038Z,21.10
2018-07-25T03:27:50.306Z,21.00
2018-07-25T03:30:18.603Z,21.10
2018-07-25T03:32:46.899Z,21.00
2018-07-25T03:35:15.178Z,21.00
2018-07-25T03:37:43.408Z,21.00
2018-07-25T03:40:11.627Z,21.00
2018-07-25T03:42:39.819Z,21.00
2018-07-25T03:45:08.040Z,20.90
2018-07-25T03:47:36.289Z,20.90
2018-07-25T03:50:04.620Z,20.90
2018-07-25T03:52:32.880Z,20.90
2018-07-25T03:55:01.182Z,20.90
2018-07-25T03:57:29.427Z,20.80
2018-07-25T03:59:57.695Z,20.80
2018-07-25T04:02:25.970Z,20.80
2018-07-25T04:04:54.300Z,20.90
2018-07-25T04:07:22.679Z,20.90
2018-07-25T04:09:50.926Z,20.80
2018-07-25T04:12:19.399Z,20.90
2018-07-25T04:14:47.654Z,21.00
2018-07-25T04:17:16.272Z,21.20
2018-07-25T04:19:44.589Z,21.30
2018-07-25T04:22:12.828Z,21.40
2018-07-25T04:24:41.166Z,21.40
2018-07-25T04:27:19.491Z,21.40
2018-07-25T04:29:47.791Z,21.40
2018-07-25T04:32:16.034Z,21.30
2018-07-25T04:34:44.295Z,21.30
2018-07-25T04:37:12.703Z,21.30
2018-07-25T04:39:40.942Z,21.30
2018-07-25T04:42:09.267Z,21.20
2018-07-25T04:44:37.877Z,21.20
2018-07-25T04:47:06.218Z,21.20
2018-07-25T04:49:34.454Z,21.20
2018-07-25T04:52:02.931Z,21.30
2018-07-25T04:54:31.170Z,21.30
2018-07-25T04:56:59.723Z,21.30
2018-07-25T04:59:27.978Z,21.40
2018-07-25T05:01:56.338Z,21.40
2018-07-25T05:04:24.551Z,21.40
2018-07-25T05:06:52.962Z,21.50
2018-07-25T05:09:21.789Z,21.50
2018-07-25T05:11:50.656Z,21.50
2018-07-25T05:14:25.600Z,21.60
2018-07-25T05:16:55.578Z,21.70
2018-07-25T05:19:25.083Z,21.70
2018-07-25T05:21:54.083Z,21.80
2018-07-25T05:24:22.656Z,21.80
2018-07-25T05:26:52.037Z,21.90
2018-07-25T05:29:20.711Z,21.90
2018-07-25T05:31:49.358Z,22.00
2018-07-25T05:34:18.009Z,22.00
2018-07-25T05:40:11.200Z,22.00
2018-07-25T05:42:40.680Z,22.00
2018-07-25T05:45:19.664Z,22.10
2018-07-25T05:47:53.364Z,22.10
2018-07-25T05:50:25.568Z,22.20
2018-07-25T05:52:59.484Z,22.30
2018-07-25T05:55:49.033Z,22.40
2018-07-25T05:58:18.980Z,22.40
2018-07-25T06:00:53.604Z,22.50
2018-07-25T06:03:31.119Z,22.60
2018-07-25T06:06:01.190Z,22.70
2018-07-25T06:08:31.861Z,22.70
2018-07-25T06:11:05.064Z,22.80
2018-07-25T06:13:35.005Z,22.80
2018-07-25T06:16:04.765Z,22.90
2018-07-25T06:18:38.370Z,22.90
2018-07-25T06:21:15.683Z,22.90
2018-07-25T06:23:54.311Z,22.90
2018-07-25T06:26:37.194Z,23.00
2018-07-25T06:29:10.537Z,23.00
2018-07-25T06:34:32.116Z,23.10
2018-07-25T06:37:04.369Z,23.10
2018-07-25T06:42:21.386Z,23.10
2018-07-25T06:44:50.197Z,23.10
2018-07-25T06:47:19.710Z,23.20
2018-07-25T06:49:47.982Z,23.20
2018-07-25T06:52:16.350Z,23.20
2018-07-25T06:54:44.783Z,23.20
2018-07-25T06:57:18.815Z,23.30
2018-07-25T06:59:47.554Z,23.40
2018-07-25T07:02:17.994Z,23.40
2018-07-25T07:04:46.459Z,23.50
2018-07-25T07:07:15.941Z,23.60
2018-07-25T07:09:44.690Z,23.60
2018-07-25T07:12:13.866Z,23.70
2018-07-25T07:14:42.205Z,23.80
2018-07-25T07:17:12.687Z,23.90
2018-07-25T07:19:51.168Z,24.00
2018-07-25T07:22:20.492Z,24.00
2018-07-25T07:24:54.050Z,24.10
2018-07-25T07:27:23.168Z,24.20
2018-07-25T07:29:51.994Z,24.30
2018-07-25T07:32:22.203Z,24.40
2018-07-25T07:34:52.782Z,24.50
2018-07-25T07:37:31.709Z,24.50
2018-07-25T07:40:01.447Z,24.50
2018-07-25T07:42:34.334Z,24.40
2018-07-25T07:45:03.107Z,24.40
2018-07-25T07:47:31.712Z,24.50
2018-07-25T07:50:00.641Z,24.60
2018-07-25T07:52:30.790Z,24.80
2018-07-25T07:54:59.543Z,24.90
2018-07-25T07:57:28.095Z,25.10
2018-07-25T08:00:02.550Z,25.20
2018-07-25T08:02:33.084Z,25.40
2018-07-25T08:05:01.933Z,25.50
2018-07-25T08:07:31.131Z,25.60
2018-07-25T08:10:00.695Z,25.80
2018-07-25T08:12:29.010Z,25.90
2018-07-25T08:14:58.590Z,26.00
2018-07-25T08:17:28.012Z,26.10
2018-07-25T08:19:59.668Z,26.20
2018-07-25T08:22:29.667Z,26.20
2018-07-25T08:24:59.094Z,26.30
2018-07-25T08:27:31.319Z,26.40
2018-07-25T08:30:00.664Z,26.50
2018-07-25T08:32:30.236Z,26.60
2018-07-25T08:35:00.634Z,26.70
2018-07-25T08:37:30.421Z,26.80
2018-07-25T08:39:59.619Z,26.80
2018-07-25T08:45:11.919Z,26.90
2018-07-25T08:47:41.382Z,26.90
2018-07-25T08:50:11.941Z,27.00
2018-07-25T08:52:44.068Z,27.10
2018-07-25T08:55:15.755Z,27.20
2018-07-25T08:57:49.489Z,27.20
2018-07-25T09:00:28.499Z,27.30
2018-07-25T09:03:00.249Z,27.30
2018-07-25T09:05:40.039Z,27.40
2018-07-25T09:08:15.936Z,27.40
2018-07-25T09:11:00.935Z,27.50
2018-07-25T09:16:39.977Z,27.70
2018-07-25T09:19:08.695Z,27.60
2018-07-25T09:21:37.059Z,27.60
2018-07-25T09:24:06.263Z,27.60
2018-07-25T09:26:38.966Z,27.70
2018-07-25T09:29:09.197Z,27.80
2018-07-25T09:31:37.795Z,27.90
2018-07-25T09:34:07.152Z,27.90
2018-07-25T09:36:37.379Z,27.90
2018-07-25T09:39:07.992Z,28.10
2018-07-25T09:41:41.218Z,28.10
2018-07-25T09:44:10.493Z,28.20
2018-07-25T09:46:45.397Z,28.20
2018-07-25T09:49:25.381Z,28.20
2018-07-25T09:51:55.625Z,28.30
2018-07-25T09:54:36.479Z,28.40
2018-07-25T09:57:05.824Z,28.40
2018-07-25T09:59:35.171Z,28.40
2018-07-25T10:02:03.963Z,28.50
2018-07-25T10:04:32.715Z,28.60
2018-07-25T10:07:03.335Z,28.70
2018-07-25T10:09:54.730Z,28.80
2018-07-25T10:12:23.959Z,28.90
2018-07-25T10:14:56.148Z,29.00
2018-07-25T10:17:25.390Z,29.20
2018-07-25T10:19:54.175Z,29.30
2018-07-25T10:22:22.882Z,29.40
2018-07-25T10:24:51.362Z,29.40
2018-07-25T10:27:20.437Z,29.60
2018-07-25T10:29:51.552Z,29.60
2018-07-25T10:32:27.879Z,29.60
2018-07-25T10:34:57.158Z,29.60
2018-07-25T10:37:27.043Z,29.60
2018-07-25T10:39:55.634Z,29.70
2018-07-25T10:42:24.876Z,29.70
2018-07-25T10:44:54.482Z,29.80
2018-07-25T10:47:32.533Z,29.80
2018-07-25T10:50:01.451Z,29.80
2018-07-25T10:52:31.051Z,29.80
2018-07-25T10:55:00.899Z,29.80
2018-07-25T10:57:29.875Z,29.80
2018-07-25T11:00:00.721Z,29.90
2018-07-25T11:02:31.084Z,29.90
2018-07-25T11:04:59.662Z,29.90
2018-07-25T11:07:30.219Z,29.90
2018-07-25T11:09:59.131Z,30.00
2018-07-25T11:12:37.445Z,30.00
2018-07-25T11:15:07.474Z,30.00
2018-07-25T11:17:39.648Z,30.10
2018-07-25T11:20:08.511Z,30.00
2018-07-25T11:22:37.427Z,30.10
2018-07-25T11:25:07.027Z,30.10
2018-07-25T11:27:37.267Z,30.10
2018-07-25T11:30:05.915Z,30.10
2018-07-25T11:32:34.415Z,30.20
2018-07-25T11:35:05.255Z,30.20
2018-07-25T11:37:34.036Z,30.30
2018-07-25T11:40:02.424Z,30.40
2018-07-25T11:42:30.791Z,30.40
2018-07-25T11:44:59.238Z,30.40
2018-07-25T11:47:29.985Z,30.30
2018-07-25T11:49:58.792Z,30.30
2018-07-25T11:52:27.061Z,30.30
2018-07-25T11:54:57.084Z,30.30
2018-07-25T11:57:26.203Z,30.30
2018-07-25T11:59:55.189Z,30.40
2018-07-25T12:02:25.262Z,30.50
2018-07-25T12:04:54.626Z,30.50
2018-07-25T12:07:28.311Z,30.60
2018-07-25T12:09:56.540Z,30.60
2018-07-25T12:12:25.894Z,30.60
2018-07-25T12:14:56.211Z,30.70
2018-07-25T12:17:24.502Z,30.80
2018-07-25T12:19:52.728Z,30.90
2018-07-25T12:22:21.154Z,31.00
2018-07-25T12:24:49.447Z,31.40
2018-07-25T12:27:18.020Z,31.80
2018-07-25T12:29:47.929Z,31.80
2018-07-25T12:32:16.493Z,31.70
2018-07-25T12:34:44.813Z,31.60
2018-07-25T12:37:13.322Z,31.60
2018-07-25T12:39:41.663Z,31.50
2018-07-25T12:42:11.376Z,31.40
2018-07-25T12:44:39.772Z,31.40
2018-07-25T12:47:08.127Z,31.40
2018-07-25T12:49:38.311Z,31.40
2018-07-25T12:52:07.287Z,31.40
2018-07-25T12:54:37.534Z,31.30
2018-07-25T12:57:10.647Z,31.30
2018-07-25T12:59:39.891Z,31.30
2018-07-25T13:02:09.064Z,31.30
2018-07-25T13:04:38.512Z,31.40
2018-07-25T13:07:07.230Z,31.40
2018-07-25T13:09:40.591Z,31.40
2018-07-25T13:12:08.944Z,31.40
2018-07-25T13:14:42.013Z,31.30
2018-07-25T13:17:10.658Z,31.40
2018-07-25T13:19:39.151Z,31.40
2018-07-25T13:22:09.182Z,31.40
2018-07-25T13:24:37.599Z,31.30
2018-07-25T13:27:06.614Z,31.30
2018-07-25T13:29:35.394Z,31.20
2018-07-25T13:32:04.638Z,31.20
2018-07-25T13:34:33.040Z,31.10
2018-07-25T13:37:02.197Z,31.10
2018-07-25T13:39:30.563Z,31.00
2018-07-25T13:41:59.774Z,31.00
2018-07-25T13:44:28.407Z,30.90
2018-07-25T13:46:57.949Z,30.70
2018-07-25T13:49:26.330Z,30.50
2018-07-25T13:51:54.733Z,30.20
2018-07-25T13:54:23.033Z,30.10
2018-07-25T13:56:51.980Z,30.00
2018-07-25T13:59:21.200Z,30.00
2018-07-25T14:01:50.312Z,29.90
2018-07-25T14:04:19.554Z,29.80
2018-07-25T14:06:48.134Z,29.80
2018-07-25T14:09:16.442Z,29.70
2018-07-25T14:11:44.754Z,29.60
2018-07-25T14:14:13.088Z,29.50
2018-07-25T14:16:42.191Z,29.40
2018-07-25T14:19:11.367Z,29.50
2018-07-25T14:21:40.043Z,29.40
2018-07-25T14:24:08.527Z,29.40
2018-07-25T14:26:40.074Z,29.30
2018-07-25T14:29:08.421Z,29.30
2018-07-25T14:31:36.650Z,29.20
2018-07-25T14:34:05.240Z,29.10
2018-07-25T14:36:33.857Z,29.10
2018-07-25T14:39:02.535Z,29.10
2018-07-25T14:41:32.573Z,29.10
2018-07-25T14:44:01.426Z,29.10
2018-07-25T14:46:39.855Z,29.10
2018-07-25T14:49:09.031Z,29.10
2018-07-25T14:51:38.546Z,29.00
2018-07-25T14:54:08.488Z,29.00
2018-07-25T14:56:37.319Z,28.90
2018-07-25T14:59:16.375Z,28.90
2018-07-25T15:01:45.715Z,29.40
2018-07-25T15:04:14.764Z,30.30
2018-07-25T15:06:43.335Z,31.30
2018-07-25T15:09:12.546Z,31.90
2018-07-25T15:11:41.416Z,32.40
2018-07-25T15:14:10.384Z,32.80
2018-07-25T15:16:39.483Z,33.20
2018-07-25T15:19:07.786Z,33.60
2018-07-25T15:21:36.866Z,34.00
2018-07-25T15:24:06.354Z,34.40
2018-07-25T15:26:35.061Z,35.00
2018-07-25T15:29:04.124Z,35.40
2018-07-25T15:31:32.335Z,35.80
2018-07-25T15:34:00.666Z,36.20
2018-07-25T15:36:42.558Z,36.60
2018-07-25T15:39:13.467Z,36.90
2018-07-25T15:41:42.465Z,37.00
2018-07-25T15:44:10.727Z,37.00
2018-07-25T15:46:39.374Z,37.00
2018-07-25T15:49:08.214Z,37.00
2018-07-25T15:51:36.679Z,37.10
2018-07-25T15:54:05.667Z,37.10
2018-07-25T15:56:35.188Z,37.00
2018-07-25T15:59:04.071Z,37.00
2018-07-25T16:01:32.663Z,36.90
2018-07-25T16:04:01.334Z,36.90
2018-07-25T16:06:29.819Z,37.10
2018-07-25T16:08:58.270Z,37.10
2018-07-25T16:11:26.595Z,37.10
2018-07-25T16:13:54.908Z,36.90
2018-07-25T16:16:24.311Z,36.70
2018-07-25T16:18:52.570Z,36.40
2018-07-25T16:21:20.823Z,36.20
2018-07-25T16:23:49.427Z,36.00
2018-07-25T16:26:18.356Z,35.90
2018-07-25T16:28:46.752Z,35.90
2018-07-25T16:31:15.072Z,35.90
2018-07-25T16:33:44.192Z,35.90
2018-07-25T16:36:18.258Z,35.90
2018-07-25T16:38:55.476Z,35.50
2018-07-25T16:41:23.983Z,34.60
2018-07-25T16:43:53.049Z,33.50
2018-07-25T16:46:23.555Z,32.60
2018-07-25T16:48:51.956Z,31.90
2018-07-25T16:51:21.772Z,31.30
2018-07-25T16:53:50.404Z,30.70
2018-07-25T16:56:19.134Z,30.30
2018-07-25T17:01:38.381Z,29.70
2018-07-25T17:04:16.825Z,29.50
2018-07-25T17:06:48.309Z,29.40
2018-07-25T17:09:19.016Z,29.30
2018-07-25T17:11:51.502Z,29.20
2018-07-25T17:14:24.543Z,29.20
2018-07-25T17:17:05.847Z,29.10
2018-07-25T17:19:35.213Z,29.00
2018-07-25T17:22:10.664Z,28.90
2018-07-25T17:24:40.040Z,28.80
2018-07-25T17:27:11.714Z,28.80
2018-07-25T17:29:45.827Z,28.70
2018-07-25T17:32:19.551Z,28.60
2018-07-25T17:40:29.656Z,28.20
2018-07-25T17:43:16.355Z,28.10
2018-07-25T17:46:05.165Z,28.00
2018-07-25T17:54:05.272Z,27.80
2018-07-25T17:56:33.619Z,27.70
2018-07-25T17:59:06.392Z,27.70
2018-07-25T18:01:39.606Z,27.60
2018-07-25T18:04:13.366Z,27.60
2018-07-25T18:06:42.175Z,27.50
2018-07-25T18:09:15.360Z,27.50
2018-07-25T18:11:45.839Z,27.40
2018-07-25T18:14:20.743Z,27.40
2018-07-25T18:17:03.816Z,27.30
2018-07-25T18:19:34.190Z,27.30
2018-07-25T18:22:05.211Z,27.20
2018-07-25T18:24:34.202Z,27.10
2018-07-25T18:30:01.787Z,27.00
2018-07-25T18:32:30.123Z,26.90
2018-07-25T18:34:58.935Z,26.80
2018-07-25T18:37:29.608Z,26.80
2018-07-25T18:39:58.254Z,26.70
2018-07-25T18:42:30.210Z,26.70
2018-07-25T18:44:58.922Z,26.60
2018-07-25T18:47:27.726Z,26.60
2018-07-25T18:49:55.979Z,26.60
2018-07-25T18:52:26.088Z,26.50
2018-07-25T18:54:54.790Z,26.50
2018-07-25T18:57:23.217Z,26.40
2018-07-25T18:59:52.621Z,26.30
2018-07-25T19:02:22.434Z,26.30
2018-07-25T19:04:50.751Z,26.20
2018-07-25T19:07:19.325Z,26.20
2018-07-25T19:09:48.727Z,26.10
2018-07-25T19:12:19.214Z,26.00
2018-07-25T19:14:52.862Z,25.90
2018-07-25T19:17:22.102Z,25.90
2018-07-25T19:19:50.459Z,25.80
2018-07-25T19:22:18.757Z,25.70
2018-07-25T19:24:47.138Z,25.60
2018-07-25T19:27:16.320Z,25.60
2018-07-25T19:29:44.923Z,25.50
2018-07-25T19:32:13.141Z,25.40
2018-07-25T19:34:41.437Z,25.40
2018-07-25T19:37:09.808Z,25.30
2018-07-25T19:39:39.884Z,25.30
2018-07-25T19:42:09.204Z,25.20
2018-07-25T19:44:37.508Z,25.20
2018-07-25T19:47:06.178Z,25.20
2018-07-25T19:49:35.026Z,25.10
2018-07-25T19:52:03.836Z,25.10
2018-07-25T19:54:32.693Z,25.10
2018-07-25T19:57:05.554Z,25.10
2018-07-25T19:59:36.416Z,25.10
2018-07-25T20:02:05.089Z,25.10
2018-07-25T20:04:35.490Z,25.00
2018-07-25T20:07:04.005Z,25.10
2018-07-25T20:09:32.322Z,25.00
2018-07-25T20:12:00.900Z,25.10
2018-07-25T20:14:34.840Z,25.00
2018-07-25T20:17:03.477Z,25.00
2018-07-25T20:19:31.722Z,25.00
2018-07-25T20:22:00.070Z,25.00
2018-07-25T20:24:28.661Z,25.00
2018-07-25T20:26:58.170Z,25.10
2018-07-25T20:29:26.975Z,25.10
2018-07-25T20:31:55.287Z,25.10
2018-07-25T20:37:25.899Z,25.10
2018-07-25T20:39:54.524Z,25.00
2018-07-25T20:42:24.688Z,25.00
2018-07-25T20:44:53.291Z,25.00
2018-07-25T20:47:29.802Z,24.90
2018-07-25T20:49:58.605Z,24.80
2018-07-25T20:52:28.107Z,24.80
2018-07-25T20:54:56.991Z,24.70
2018-07-25T20:57:25.612Z,24.70
2018-07-25T21:00:05.790Z,24.60
2018-07-25T21:02:34.945Z,24.60
2018-07-25T21:05:03.947Z,24.60
2018-07-25T21:07:33.160Z,24.50
2018-07-25T21:10:02.707Z,24.50
2018-07-25T21:12:31.811Z,24.50
2018-07-25T21:15:04.796Z,24.50
2018-07-25T21:17:40.926Z,24.50
2018-07-25T21:20:09.296Z,24.50
2018-07-25T21:22:38.001Z,24.50
2018-07-25T21:25:06.644Z,24.40
2018-07-25T21:27:35.314Z,24.40
2018-07-25T21:30:04.740Z,24.40
2018-07-25T21:32:33.416Z,24.30
2018-07-25T21:35:01.931Z,24.30
2018-07-25T21:37:30.581Z,24.30
2018-07-25T21:40:00.834Z,24.20
2018-07-25T21:42:29.295Z,24.20
2018-07-25T21:44:57.696Z,24.10
2018-07-25T21:47:26.168Z,24.10
2018-07-25T21:49:54.821Z,24.10
2018-07-25T21:52:23.364Z,24.00
2018-07-25T21:54:52.513Z,24.00
2018-07-25T21:57:21.150Z,24.00
2018-07-25T21:59:49.676Z,24.00
2018-07-25T22:02:18.219Z,23.90
2018-07-25T22:04:46.564Z,23.90
2018-07-25T22:07:15.874Z,23.80
2018-07-25T22:09:44.243Z,23.80
2018-07-25T22:12:12.732Z,23.80
2018-07-25T22:14:42.320Z,23.80
2018-07-25T22:17:11.842Z,23.70
2018-07-25T22:19:40.187Z,23.70
2018-07-25T22:22:08.759Z,23.70
2018-07-25T22:24:37.732Z,23.70
2018-07-25T22:27:06.818Z,23.70
2018-07-25T22:29:35.103Z,23.60
2018-07-25T22:32:03.838Z,23.60
2018-07-25T22:34:32.146Z,23.60
2018-07-25T22:37:00.735Z,23.60
2018-07-25T22:39:29.026Z,23.60
2018-07-25T22:41:57.271Z,23.60
2018-07-25T22:44:25.614Z,23.50
2018-07-25T22:46:54.177Z,23.60
2018-07-25T22:49:22.470Z,23.50
2018-07-25T22:51:50.787Z,23.50
2018-07-25T22:54:19.261Z,23.40
2018-07-25T22:56:47.655Z,23.40
2018-07-25T22:59:15.977Z,23.40
2018-07-25T23:01:44.346Z,23.40
2018-07-25T23:04:12.911Z,23.40
2018-07-25T23:06:46.475Z,23.40
2018-07-25T23:09:16.398Z,23.30
2018-07-25T23:11:45.698Z,23.30
2018-07-25T23:14:14.202Z,23.30
2018-07-25T23:16:42.892Z,23.30
2018-07-25T23:19:11.510Z,23.30
2018-07-25T23:21:40.295Z,23.20
2018-07-25T23:24:09.151Z,23.20
2018-07-25T23:26:38.023Z,23.20
2018-07-25T23:29:06.935Z,23.20
2018-07-25T23:31:35.296Z,23.20
2018-07-25T23:34:03.770Z,23.20
2018-07-25T23:36:32.411Z,23.10
2018-07-25T23:39:00.899Z,23.10
2018-07-25T23:41:29.237Z,23.00
2018-07-25T23:43:58.121Z,23.00
2018-07-25T23:46:26.841Z,23.00
2018-07-25T23:48:56.781Z,23.00
2018-07-25T23:51:25.300Z,23.00
2018-07-25T23:53:54.445Z,22.90
2018-07-25T23:56:23.073Z,22.90
2018-07-25T23:58:51.535Z,22.90
